sensor_id;sensor_type;location;lat;lon;timestamp;pressure;altitude;pressure_sealevel;temperature;humidity
20015;BME280;61787;42.022;23.078;2022-11-20T00:00:40;96218.81;;;17.62;84.27
20015;BME280;61787;42.022;23.078;2022-11-20T00:01:41;96227.31;;;17.61;84.45
20015;BME280;61787;42.022;23.078;2022-11-20T00:02:43;96212.97;;;17.60;84.33
20015;BME280;61787;42.022;23.078;2022-11-20T00:03:45;96219.16;;;17.57;84.57
20015;BME280;61787;42.022;23.078;2022-11-20T00:04:47;96212.59;;;17.58;84.42
20015;BME280;61787;42.022;23.078;2022-11-20T00:05:49;96222.66;;;17.58;84.66
20015;BME280;61787;42.022;23.078;2022-11-20T00:06:50;96212.97;;;17.60;84.43
20015;BME280;61787;42.022;23.078;2022-11-20T00:07:52;96217.63;;;17.60;84.74
20015;BME280;61787;42.022;23.078;2022-11-20T00:08:55;96222.25;;;17.56;85.13
20015;BME280;61787;42.022;23.078;2022-11-20T00:09:57;96217.25;;;17.51;85.02
20015;BME280;61787;42.022;23.078;2022-11-20T00:11:19;96218.41;;;17.53;85.32
20015;BME280;61787;42.022;23.078;2022-11-20T00:12:21;96215.31;;;17.51;85.29
20015;BME280;61787;42.022;23.078;2022-11-20T00:13:23;96213.75;;;17.50;85.74
20015;BME280;61787;42.022;23.078;2022-11-20T00:14:24;96219.97;;;17.51;85.58
20015;BME280;61787;42.022;23.078;2022-11-20T00:15:26;96222.28;;;17.52;85.27
20015;BME280;61787;42.022;23.078;2022-11-20T00:16:30;96217.63;;;17.53;85.62
20015;BME280;61787;42.022;23.078;2022-11-20T00:17:32;96212.22;;;17.53;85.71
20015;BME280;61787;42.022;23.078;2022-11-20T00:18:34;96216.09;;;17.52;85.66
20015;BME280;61787;42.022;23.078;2022-11-20T00:19:36;96211.44;;;17.52;85.26
20015;BME280;61787;42.022;23.078;2022-11-20T00:20:38;96219.56;;;17.52;85.60
20015;BME280;61787;42.022;23.078;2022-11-20T00:21:39;96209.88;;;17.55;85.02
20015;BME280;61787;42.022;23.078;2022-11-20T00:22:41;96206.00;;;17.56;85.17
20015;BME280;61787;42.022;23.078;2022-11-20T00:23:42;96203.69;;;17.58;85.04
20015;BME280;61787;42.022;23.078;2022-11-20T00:24:44;96212.22;;;17.60;85.26
20015;BME280;61787;42.022;23.078;2022-11-20T00:25:46;96200.63;;;17.59;84.77
20015;BME280;61787;42.022;23.078;2022-11-20T00:26:47;96215.31;;;17.62;84.95
20015;BME280;61787;42.022;23.078;2022-11-20T00:27:49;96216.06;;;17.59;85.13
20015;BME280;61787;42.022;23.078;2022-11-20T00:28:55;96224.22;;;17.59;84.88
20015;BME280;61787;42.022;23.078;2022-11-20T00:29:57;96217.63;;;17.56;85.23
20015;BME280;61787;42.022;23.078;2022-11-20T00:32:04;96212.97;;;17.57;85.41
20015;BME280;61787;42.022;23.078;2022-11-20T00:33:06;96218.41;;;17.57;85.29
20015;BME280;61787;42.022;23.078;2022-11-20T00:34:09;96226.53;;;17.57;85.24
20015;BME280;61787;42.022;23.078;2022-11-20T00:35:10;96229.25;;;17.57;85.03
20015;BME280;61787;42.022;23.078;2022-11-20T00:36:17;96215.69;;;17.57;85.42
20015;BME280;61787;42.022;23.078;2022-11-20T00:37:19;96227.69;;;17.56;85.05
20015;BME280;61787;42.022;23.078;2022-11-20T00:38:21;96225.38;;;17.51;85.78
20015;BME280;61787;42.022;23.078;2022-11-20T00:39:22;96228.50;;;17.49;85.74
20015;BME280;61787;42.022;23.078;2022-11-20T00:40:24;96234.66;;;17.49;85.86
20015;BME280;61787;42.022;23.078;2022-11-20T00:41:27;96227.72;;;17.48;85.65
20015;BME280;61787;42.022;23.078;2022-11-20T00:42:29;96223.84;;;17.46;86.18
20015;BME280;61787;42.022;23.078;2022-11-20T00:43:30;96220.78;;;17.44;85.77
20015;BME280;61787;42.022;23.078;2022-11-20T00:44:32;96214.56;;;17.47;85.39
20015;BME280;61787;42.022;23.078;2022-11-20T00:45:33;96214.53;;;17.51;85.13
20015;BME280;61787;42.022;23.078;2022-11-20T00:46:35;96210.66;;;17.52;85.19
20015;BME280;61787;42.022;23.078;2022-11-20T00:47:37;96214.53;;;17.51;85.17
20015;BME280;61787;42.022;23.078;2022-11-20T00:48:39;96218.03;;;17.51;84.96
20015;BME280;61787;42.022;23.078;2022-11-20T00:49:40;96212.22;;;17.53;84.82
20015;BME280;61787;42.022;23.078;2022-11-20T00:50:42;96213.00;;;17.53;84.97
20015;BME280;61787;42.022;23.078;2022-11-20T00:51:43;96208.72;;;17.52;85.06
20015;BME280;61787;42.022;23.078;2022-11-20T00:52:45;96220.38;;;17.49;85.60
20015;BME280;61787;42.022;23.078;2022-11-20T00:53:47;96218.06;;;17.44;85.59
20015;BME280;61787;42.022;23.078;2022-11-20T00:54:48;96211.47;;;17.41;85.69
20015;BME280;61787;42.022;23.078;2022-11-20T00:55:58;96207.59;;;17.39;85.93
20015;BME280;61787;42.022;23.078;2022-11-20T00:57:00;96212.25;;;17.38;85.97
20015;BME280;61787;42.022;23.078;2022-11-20T00:58:01;96221.56;;;17.37;86.54
20015;BME280;61787;42.022;23.078;2022-11-20T00:59:05;96209.19;;;17.33;86.78
20015;BME280;61787;42.022;23.078;2022-11-20T01:00:07;96189.44;;;17.32;86.73
20015;BME280;61787;42.022;23.078;2022-11-20T01:01:16;96196.41;;;17.33;86.09
20015;BME280;61787;42.022;23.078;2022-11-20T01:02:18;96192.50;;;17.34;86.69
20015;BME280;61787;42.022;23.078;2022-11-20T01:03:19;96192.50;;;17.34;86.26
20015;BME280;61787;42.022;23.078;2022-11-20T01:04:27;96191.38;;;17.32;86.67
20015;BME280;61787;42.022;23.078;2022-11-20T01:05:28;96189.81;;;17.31;86.37
20015;BME280;61787;42.022;23.078;2022-11-20T01:06:35;96191.38;;;17.32;86.30
20015;BME280;61787;42.022;23.078;2022-11-20T01:07:37;96187.50;;;17.29;86.66
20015;BME280;61787;42.022;23.078;2022-11-20T01:08:40;96184.78;;;17.29;86.41
20015;BME280;61787;42.022;23.078;2022-11-20T01:09:41;96184.00;;;17.29;86.68
20015;BME280;61787;42.022;23.078;2022-11-20T01:10:43;96169.72;;;17.28;86.33
20015;BME280;61787;42.022;23.078;2022-11-20T01:11:45;96168.16;;;17.27;86.57
20015;BME280;61787;42.022;23.078;2022-11-20T01:12:46;96165.03;;;17.29;86.31
20015;BME280;61787;42.022;23.078;2022-11-20T01:14:14;96165.81;;;17.26;86.63
20015;BME280;61787;42.022;23.078;2022-11-20T01:15:16;96160.38;;;17.29;86.36
20015;BME280;61787;42.022;23.078;2022-11-20T01:16:26;96161.94;;;17.30;85.87
20015;BME280;61787;42.022;23.078;2022-11-20T01:17:28;96158.06;;;17.31;86.16
20015;BME280;61787;42.022;23.078;2022-11-20T01:18:32;96152.69;;;17.28;86.26
20015;BME280;61787;42.022;23.078;2022-11-20T01:19:33;96169.72;;;17.28;85.91
20015;BME280;61787;42.022;23.078;2022-11-20T01:20:36;96160.38;;;17.29;86.00
20015;BME280;61787;42.022;23.078;2022-11-20T01:21:40;96163.88;;;17.30;86.09
20015;BME280;61787;42.022;23.078;2022-11-20T01:22:42;96168.16;;;17.27;86.54
20015;BME280;61787;42.022;23.078;2022-11-20T01:23:44;96161.19;;;17.26;86.27
20015;BME280;61787;42.022;23.078;2022-11-20T01:24:46;96162.75;;;17.27;85.76
20015;BME280;61787;42.022;23.078;2022-11-20T01:25:47;96163.50;;;17.31;85.19
20015;BME280;61787;42.022;23.078;2022-11-20T01:26:50;96168.91;;;17.35;84.68
20015;BME280;61787;42.022;23.078;2022-11-20T01:27:52;96172.38;;;17.35;85.14
20015;BME280;61787;42.022;23.078;2022-11-20T01:28:54;96161.94;;;17.37;85.00
20015;BME280;61787;42.022;23.078;2022-11-20T01:29:56;96171.19;;;17.40;84.34
20015;BME280;61787;42.022;23.078;2022-11-20T01:31:02;96163.84;;;17.40;84.21
20015;BME280;61787;42.022;23.078;2022-11-20T01:32:12;96151.03;;;17.44;84.14
20015;BME280;61787;42.022;23.078;2022-11-20T01:33:13;96159.94;;;17.45;83.74
20015;BME280;61787;42.022;23.078;2022-11-20T01:34:17;96148.34;;;17.44;84.01
20015;BME280;61787;42.022;23.078;2022-11-20T01:35:20;96153.75;;;17.52;83.11
20015;BME280;61787;42.022;23.078;2022-11-20T01:36:23;96148.72;;;17.54;83.09
20015;BME280;61787;42.022;23.078;2022-11-20T01:37:24;96144.81;;;17.55;82.38
20015;BME280;61787;42.022;23.078;2022-11-20T01:38:26;96152.56;;;17.60;82.12
20015;BME280;61787;42.022;23.078;2022-11-20T01:39:28;96151.00;;;17.59;82.35
20015;BME280;61787;42.022;23.078;2022-11-20T01:40:29;96152.19;;;17.61;81.75
20015;BME280;61787;42.022;23.078;2022-11-20T01:41:32;96153.34;;;17.64;81.49
20015;BME280;61787;42.022;23.078;2022-11-20T01:43:06;96142.06;;;17.65;81.34
20015;BME280;61787;42.022;23.078;2022-11-20T01:46:18;96138.97;;;17.67;81.42
20015;BME280;61787;42.022;23.078;2022-11-20T01:48:40;96117.69;;;17.69;80.46
20015;BME280;61787;42.022;23.078;2022-11-20T01:49:50;96125.41;;;17.70;80.48
20015;BME280;61787;42.022;23.078;2022-11-20T01:50:54;96113.78;;;17.70;80.58
20015;BME280;61787;42.022;23.078;2022-11-20T01:51:59;96117.69;;;17.69;80.93
20015;BME280;61787;42.022;23.078;2022-11-20T01:53:08;96117.66;;;17.72;79.97
20015;BME280;61787;42.022;23.078;2022-11-20T01:54:16;96120.34;;;17.76;80.16
20015;BME280;61787;42.022;23.078;2022-11-20T01:55:24;96109.91;;;17.74;80.54
20015;BME280;61787;42.022;23.078;2022-11-20T01:56:28;96123.84;;;17.73;80.44
20015;BME280;61787;42.022;23.078;2022-11-20T01:57:34;96103.31;;;17.72;79.98
20015;BME280;61787;42.022;23.078;2022-11-20T01:58:40;96124.59;;;17.77;80.15
20015;BME280;61787;42.022;23.078;2022-11-20T01:59:47;96113.38;;;17.75;79.68
20015;BME280;61787;42.022;23.078;2022-11-20T02:00:51;96109.88;;;17.78;79.48
20015;BME280;61787;42.022;23.078;2022-11-20T02:01:53;96104.44;;;17.78;79.65
20015;BME280;61787;42.022;23.078;2022-11-20T02:03:01;96115.31;;;17.78;79.46
20015;BME280;61787;42.022;23.078;2022-11-20T02:04:03;96118.41;;;17.76;79.96
20015;BME280;61787;42.022;23.078;2022-11-20T02:05:31;96118.03;;;17.74;80.01
20015;BME280;61787;42.022;23.078;2022-11-20T02:06:44;96124.22;;;17.75;80.03
20015;BME280;61787;42.022;23.078;2022-11-20T02:07:48;96126.91;;;17.75;79.98
20015;BME280;61787;42.022;23.078;2022-11-20T02:08:51;96123.06;;;17.72;80.10
20015;BME280;61787;42.022;23.078;2022-11-20T02:09:53;96111.44;;;17.72;79.93
20015;BME280;61787;42.022;23.078;2022-11-20T02:10:59;96122.69;;;17.74;79.91
20015;BME280;61787;42.022;23.078;2022-11-20T02:12:00;96120.75;;;17.71;79.91
20015;BME280;61787;42.022;23.078;2022-11-20T02:13:03;96116.88;;;17.72;79.59
20015;BME280;61787;42.022;23.078;2022-11-20T02:14:24;96120.75;;;17.71;79.80
20015;BME280;61787;42.022;23.078;2022-11-20T02:15:26;96132.34;;;17.75;79.48
20015;BME280;61787;42.022;23.078;2022-11-20T02:16:35;96136.25;;;17.74;79.52
20015;BME280;61787;42.022;23.078;2022-11-20T02:17:38;96123.03;;;17.76;79.26
20015;BME280;61787;42.022;23.078;2022-11-20T02:18:40;96120.34;;;17.76;79.49
20015;BME280;61787;42.022;23.078;2022-11-20T02:19:42;96114.56;;;17.74;79.59
20015;BME280;61787;42.022;23.078;2022-11-20T02:20:45;96111.44;;;17.72;79.45
20015;BME280;61787;42.022;23.078;2022-11-20T02:21:56;96112.63;;;17.71;79.71
20015;BME280;61787;42.022;23.078;2022-11-20T02:23:27;96106.03;;;17.72;79.43
20015;BME280;61787;42.022;23.078;2022-11-20T02:24:33;96102.16;;;17.73;79.40
20015;BME280;61787;42.022;23.078;2022-11-20T02:25:36;96110.69;;;17.71;79.41
20015;BME280;61787;42.022;23.078;2022-11-20T02:26:42;96096.34;;;17.71;79.35
20015;BME280;61787;42.022;23.078;2022-11-20T02:27:46;96114.16;;;17.72;79.18
20015;BME280;61787;42.022;23.078;2022-11-20T02:28:48;96120.75;;;17.74;79.30
20015;BME280;61787;42.022;23.078;2022-11-20T02:30:00;96117.63;;;17.76;78.97
20015;BME280;61787;42.022;23.078;2022-11-20T02:31:03;96102.13;;;17.76;78.87
20015;BME280;61787;42.022;23.078;2022-11-20T02:32:05;96105.22;;;17.75;79.24
20015;BME280;61787;42.022;23.078;2022-11-20T02:33:06;96100.56;;;17.75;78.82
20015;BME280;61787;42.022;23.078;2022-11-20T02:34:09;96080.44;;;17.76;78.74
20015;BME280;61787;42.022;23.078;2022-11-20T02:36:21;96091.66;;;17.75;78.28
20015;BME280;61787;42.022;23.078;2022-11-20T02:37:27;96093.59;;;17.78;78.30
20015;BME280;61787;42.022;23.078;2022-11-20T02:38:31;96090.50;;;17.76;78.25
20015;BME280;61787;42.022;23.078;2022-11-20T02:39:33;96085.09;;;17.76;78.40
20015;BME280;61787;42.022;23.078;2022-11-20T02:40:34;96097.88;;;17.79;78.66
20015;BME280;61787;42.022;23.078;2022-11-20T02:41:37;96090.88;;;17.81;77.88
20015;BME280;61787;42.022;23.078;2022-11-20T02:42:39;96094.34;;;17.82;78.00
20015;BME280;61787;42.022;23.078;2022-11-20T02:43:41;96110.66;;;17.78;78.38
20015;BME280;61787;42.022;23.078;2022-11-20T02:44:42;96114.13;;;17.79;77.93
20015;BME280;61787;42.022;23.078;2022-11-20T02:45:44;96103.66;;;17.81;77.99
20015;BME280;61787;42.022;23.078;2022-11-20T02:46:46;96105.59;;;17.84;78.12
20015;BME280;61787;42.022;23.078;2022-11-20T02:47:47;96111.44;;;17.79;78.19
20015;BME280;61787;42.022;23.078;2022-11-20T02:48:49;96098.22;;;17.81;77.88
20015;BME280;61787;42.022;23.078;2022-11-20T02:49:50;96105.59;;;17.84;77.98
20015;BME280;61787;42.022;23.078;2022-11-20T02:50:52;96111.78;;;17.81;77.90
20015;BME280;61787;42.022;23.078;2022-11-20T02:51:53;96114.50;;;17.81;78.17
20015;BME280;61787;42.022;23.078;2022-11-20T02:52:55;96116.47;;;17.77;78.35
20015;BME280;61787;42.022;23.078;2022-11-20T02:53:57;96119.16;;;17.77;78.40
20015;BME280;61787;42.022;23.078;2022-11-20T02:54:58;96116.47;;;17.77;78.18
20015;BME280;61787;42.022;23.078;2022-11-20T02:56:00;96105.22;;;17.78;78.19
20015;BME280;61787;42.022;23.078;2022-11-20T02:57:02;96112.59;;;17.78;78.16
20015;BME280;61787;42.022;23.078;2022-11-20T02:58:03;96116.06;;;17.75;78.54
20015;BME280;61787;42.022;23.078;2022-11-20T02:59:05;96116.06;;;17.75;78.43
20015;BME280;61787;42.022;23.078;2022-11-20T03:00:08;96113.38;;;17.75;78.72
20015;BME280;61787;42.022;23.078;2022-11-20T03:01:09;96096.72;;;17.73;78.82
20015;BME280;61787;42.022;23.078;2022-11-20T03:02:11;96103.72;;;17.74;78.81
20015;BME280;61787;42.022;23.078;2022-11-20T03:03:13;96116.88;;;17.72;78.62
20015;BME280;61787;42.022;23.078;2022-11-20T03:04:14;96114.16;;;17.72;78.53
20015;BME280;61787;42.022;23.078;2022-11-20T03:05:16;96117.63;;;17.76;78.15
20015;BME280;61787;42.022;23.078;2022-11-20T03:06:18;96131.19;;;17.76;78.02
20015;BME280;61787;42.022;23.078;2022-11-20T03:07:19;96109.88;;;17.78;78.02
20015;BME280;61787;42.022;23.078;2022-11-20T03:08:21;96120.72;;;17.78;78.33
20015;BME280;61787;42.022;23.078;2022-11-20T03:09:22;96126.53;;;17.76;77.82
20015;BME280;61787;42.022;23.078;2022-11-20T03:10:24;96128.84;;;17.78;78.25
20015;BME280;61787;42.022;23.078;2022-11-20T03:11:26;96121.09;;;17.76;78.67
20015;BME280;61787;42.022;23.078;2022-11-20T03:12:28;96126.91;;;17.75;78.62
20015;BME280;61787;42.022;23.078;2022-11-20T03:13:29;96137.03;;;17.71;78.79
20015;BME280;61787;42.022;23.078;2022-11-20T03:14:31;96137.03;;;17.71;79.05
20015;BME280;61787;42.022;23.078;2022-11-20T03:15:33;96147.09;;;17.70;78.69
20015;BME280;61787;42.022;23.078;2022-11-20T03:16:34;96131.59;;;17.71;78.77
20015;BME280;61787;42.022;23.078;2022-11-20T03:17:36;96132.00;;;17.69;79.35
20015;BME280;61787;42.022;23.078;2022-11-20T03:18:38;96130.03;;;17.70;79.14
20015;BME280;61787;42.022;23.078;2022-11-20T03:19:40;96135.50;;;17.66;79.21
20015;BME280;61787;42.022;23.078;2022-11-20T03:20:41;96130.84;;;17.67;79.60
20015;BME280;61787;42.022;23.078;2022-11-20T03:21:43;96133.16;;;17.68;79.49
20015;BME280;61787;42.022;23.078;2022-11-20T03:22:45;96136.28;;;17.67;79.44
20015;BME280;61787;42.022;23.078;2022-11-20T03:23:46;96139.38;;;17.69;79.07
20015;BME280;61787;42.022;23.078;2022-11-20T03:24:48;96130.84;;;17.67;79.46
20015;BME280;61787;42.022;23.078;2022-11-20T03:25:49;96130.09;;;17.63;79.29
20015;BME280;61787;42.022;23.078;2022-11-20T03:26:51;96128.56;;;17.62;79.54
20015;BME280;61787;42.022;23.078;2022-11-20T03:27:54;96134.38;;;17.64;79.53
20015;BME280;61787;42.022;23.078;2022-11-20T03:28:58;96128.56;;;17.62;79.47
20015;BME280;61787;42.022;23.078;2022-11-20T03:30:00;96144.81;;;17.62;79.91
20015;BME280;61787;42.022;23.078;2022-11-20T03:31:07;96130.06;;;17.66;80.02
20015;BME280;61787;42.022;23.078;2022-11-20T03:32:09;96136.28;;;17.63;79.83
20015;BME280;61787;42.022;23.078;2022-11-20T03:33:11;96127.38;;;17.66;79.60
20015;BME280;61787;42.022;23.078;2022-11-20T03:34:12;96132.44;;;17.64;79.41
20015;BME280;61787;42.022;23.078;2022-11-20T03:35:14;96132.41;;;17.61;79.52
20015;BME280;61787;42.022;23.078;2022-11-20T03:36:18;96136.28;;;17.60;79.54
20015;BME280;61787;42.022;23.078;2022-11-20T03:37:20;96131.25;;;17.62;79.86
20015;BME280;61787;42.022;23.078;2022-11-20T03:38:21;96129.31;;;17.62;80.01
20015;BME280;61787;42.022;23.078;2022-11-20T03:39:23;96133.97;;;17.62;79.47
20015;BME280;61787;42.022;23.078;2022-11-20T03:40:25;96129.72;;;17.61;79.45
20015;BME280;61787;42.022;23.078;2022-11-20T03:41:28;96131.66;;;17.60;79.91
20015;BME280;61787;42.022;23.078;2022-11-20T03:42:30;96122.34;;;17.58;79.99
20015;BME280;61787;42.022;23.078;2022-11-20T03:43:52;96128.94;;;17.57;80.12
20015;BME280;61787;42.022;23.078;2022-11-20T03:44:55;96125.44;;;17.56;79.94
20015;BME280;61787;42.022;23.078;2022-11-20T03:45:56;96123.91;;;17.59;79.87
20015;BME280;61787;42.022;23.078;2022-11-20T03:46:58;96127.00;;;17.61;80.27
20015;BME280;61787;42.022;23.078;2022-11-20T03:48:00;96122.34;;;17.58;79.76
20015;BME280;61787;42.022;23.078;2022-11-20T03:49:02;96122.34;;;17.58;79.37
20015;BME280;61787;42.022;23.078;2022-11-20T03:50:04;96118.09;;;17.60;79.57
20015;BME280;61787;42.022;23.078;2022-11-20T03:51:07;96123.13;;;17.58;80.41
20015;BME280;61787;42.022;23.078;2022-11-20T03:52:09;96122.34;;;17.58;79.65
20015;BME280;61787;42.022;23.078;2022-11-20T03:53:11;96112.66;;;17.57;79.58
20015;BME280;61787;42.022;23.078;2022-11-20T03:54:12;96113.06;;;17.59;79.75
20015;BME280;61787;42.022;23.078;2022-11-20T03:55:14;96134.34;;;17.57;79.48
20015;BME280;61787;42.022;23.078;2022-11-20T03:56:17;96122.75;;;17.60;79.49
20015;BME280;61787;42.022;23.078;2022-11-20T03:57:19;96129.31;;;17.59;79.55
20015;BME280;61787;42.022;23.078;2022-11-20T03:58:20;96119.25;;;17.56;79.84
20015;BME280;61787;42.022;23.078;2022-11-20T03:59:22;96120.41;;;17.55;79.99
20015;BME280;61787;42.022;23.078;2022-11-20T04:00:24;96121.97;;;17.52;80.12
20015;BME280;61787;42.022;23.078;2022-11-20T04:01:28;96117.72;;;17.51;80.31
20015;BME280;61787;42.022;23.078;2022-11-20T04:02:30;96128.59;;;17.47;80.32
20015;BME280;61787;42.022;23.078;2022-11-20T04:03:32;96121.63;;;17.46;80.87
20015;BME280;61787;42.022;23.078;2022-11-20T04:04:33;96113.09;;;17.44;80.59
20015;BME280;61787;42.022;23.078;2022-11-20T04:05:35;96121.22;;;17.44;80.64
20015;BME280;61787;42.022;23.078;2022-11-20T04:06:37;96114.66;;;17.45;80.81
20015;BME280;61787;42.022;23.078;2022-11-20T04:07:39;96123.19;;;17.44;80.57
20015;BME280;61787;42.022;23.078;2022-11-20T04:08:41;96128.19;;;17.45;80.44
20015;BME280;61787;42.022;23.078;2022-11-20T04:09:43;96121.63;;;17.46;80.11
20015;BME280;61787;42.022;23.078;2022-11-20T04:10:44;96122.00;;;17.48;80.31
20015;BME280;61787;42.022;23.078;2022-11-20T04:11:46;96114.66;;;17.49;80.11
20015;BME280;61787;42.022;23.078;2022-11-20T04:12:47;96119.31;;;17.48;80.42
20015;BME280;61787;42.022;23.078;2022-11-20T04:13:54;96121.22;;;17.44;80.21
20015;BME280;61787;42.022;23.078;2022-11-20T04:14:56;96127.06;;;17.43;81.00
20015;BME280;61787;42.022;23.078;2022-11-20T04:15:58;96122.03;;;17.41;80.76
20015;BME280;61787;42.022;23.078;2022-11-20T04:16:59;96115.84;;;17.41;81.12
20015;BME280;61787;42.022;23.078;2022-11-20T04:18:01;96113.91;;;17.38;81.11
20015;BME280;61787;42.022;23.078;2022-11-20T04:19:05;96113.16;;;17.37;80.94
20015;BME280;61787;42.022;23.078;2022-11-20T04:20:07;96106.94;;;17.37;80.80
20015;BME280;61787;42.022;23.078;2022-11-20T04:21:10;96113.16;;;17.37;81.04
20015;BME280;61787;42.022;23.078;2022-11-20T04:22:12;96103.06;;;17.34;81.27
20015;BME280;61787;42.022;23.078;2022-11-20T04:23:13;96096.13;;;17.33;80.91
20015;BME280;61787;42.022;23.078;2022-11-20T04:24:15;96093.78;;;17.35;80.22
20015;BME280;61787;42.022;23.078;2022-11-20T04:25:17;96097.66;;;17.38;80.09
20015;BME280;61787;42.022;23.078;2022-11-20T04:26:19;96095.31;;;17.40;80.53
20015;BME280;61787;42.022;23.078;2022-11-20T04:27:21;96104.22;;;17.40;80.06
20015;BME280;61787;42.022;23.078;2022-11-20T04:28:22;96105.75;;;17.41;80.05
20015;BME280;61787;42.022;23.078;2022-11-20T04:29:24;96108.47;;;17.41;80.11
20015;BME280;61787;42.022;23.078;2022-11-20T04:30:25;96107.69;;;17.44;79.72
20015;BME280;61787;42.022;23.078;2022-11-20T04:31:30;96096.84;;;17.44;79.79
20015;BME280;61787;42.022;23.078;2022-11-20T04:32:32;96094.50;;;17.46;79.53
20015;BME280;61787;42.022;23.078;2022-11-20T04:33:35;96102.25;;;17.44;79.41
20015;BME280;61787;42.022;23.078;2022-11-20T04:34:37;96105.34;;;17.46;79.51
20015;BME280;61787;42.022;23.078;2022-11-20T04:35:39;96098.38;;;17.45;79.75
20015;BME280;61787;42.022;23.078;2022-11-20T04:36:40;96101.09;;;17.45;79.90
20015;BME280;61787;42.022;23.078;2022-11-20T04:37:42;96110.81;;;17.43;79.72
20015;BME280;61787;42.022;23.078;2022-11-20T04:38:44;96112.34;;;17.44;79.90
20015;BME280;61787;42.022;23.078;2022-11-20T04:39:46;96110.03;;;17.42;79.95
20015;BME280;61787;42.022;23.078;2022-11-20T04:40:47;96111.97;;;17.42;80.07
20015;BME280;61787;42.022;23.078;2022-11-20T04:41:49;96105.38;;;17.43;79.89
20015;BME280;61787;42.022;23.078;2022-11-20T04:43:11;96113.91;;;17.41;80.40
20015;BME280;61787;42.022;23.078;2022-11-20T04:44:12;96109.63;;;17.40;80.16
20015;BME280;61787;42.022;23.078;2022-11-20T04:45:14;96114.69;;;17.38;80.21
20015;BME280;61787;42.022;23.078;2022-11-20T04:46:17;96099.97;;;17.39;80.30
20015;BME280;61787;42.022;23.078;2022-11-20T04:47:18;96105.38;;;17.39;80.44
20015;BME280;61787;42.022;23.078;2022-11-20T04:48:20;96104.59;;;17.39;80.50
20015;BME280;61787;42.022;23.078;2022-11-20T04:49:22;96105.00;;;17.37;80.36
20015;BME280;61787;42.022;23.078;2022-11-20T04:50:24;96096.88;;;17.37;80.46
20015;BME280;61787;42.022;23.078;2022-11-20T04:51:26;96118.56;;;17.37;80.89
20015;BME280;61787;42.022;23.078;2022-11-20T04:52:28;96113.16;;;17.37;80.59
20015;BME280;61787;42.022;23.078;2022-11-20T04:53:30;96109.28;;;17.38;80.33
20015;BME280;61787;42.022;23.078;2022-11-20T04:54:31;96114.69;;;17.38;79.78
20015;BME280;61787;42.022;23.078;2022-11-20T04:55:33;96113.13;;;17.41;80.33
20015;BME280;61787;42.022;23.078;2022-11-20T04:56:35;96117.00;;;17.43;80.26
20015;BME280;61787;42.022;23.078;2022-11-20T04:57:36;96117.34;;;17.45;79.87
20015;BME280;61787;42.022;23.078;2022-11-20T04:58:38;96121.63;;;17.46;79.79
20015;BME280;61787;42.022;23.078;2022-11-20T04:59:40;96120.06;;;17.45;79.69
20015;BME280;61787;42.022;23.078;2022-11-20T05:00:42;96122.41;;;17.43;79.78
20015;BME280;61787;42.022;23.078;2022-11-20T05:01:43;96116.22;;;17.39;80.23
20015;BME280;61787;42.022;23.078;2022-11-20T05:02:45;96116.22;;;17.39;80.34
20015;BME280;61787;42.022;23.078;2022-11-20T05:03:47;96117.41;;;17.38;80.06
20015;BME280;61787;42.022;23.078;2022-11-20T05:04:48;96117.00;;;17.36;80.48
20015;BME280;61787;42.022;23.078;2022-11-20T05:05:50;96119.34;;;17.34;80.57
20015;BME280;61787;42.022;23.078;2022-11-20T05:06:51;96129.41;;;17.34;80.74
20015;BME280;61787;42.022;23.078;2022-11-20T05:07:56;96127.09;;;17.32;80.68
20015;BME280;61787;42.022;23.078;2022-11-20T05:08:58;96127.88;;;17.33;80.74
20015;BME280;61787;42.022;23.078;2022-11-20T05:09:59;96123.22;;;17.33;80.51
20015;BME280;61787;42.022;23.078;2022-11-20T05:11:10;96120.53;;;17.33;80.57
20015;BME280;61787;42.022;23.078;2022-11-20T05:12:12;96127.88;;;17.29;81.27
20015;BME280;61787;42.022;23.078;2022-11-20T05:13:13;96129.06;;;17.28;81.18
20015;BME280;61787;42.022;23.078;2022-11-20T05:14:15;96134.09;;;17.26;81.46
20015;BME280;61787;42.022;23.078;2022-11-20T05:15:17;96129.47;;;17.23;81.60
20015;BME280;61787;42.022;23.078;2022-11-20T05:16:23;96132.53;;;17.25;81.39
20015;BME280;61787;42.022;23.078;2022-11-20T05:17:25;96132.94;;;17.27;81.67
20015;BME280;61787;42.022;23.078;2022-11-20T05:18:26;96135.63;;;17.31;80.72
20015;BME280;61787;42.022;23.078;2022-11-20T05:19:28;96134.06;;;17.33;80.74
20015;BME280;61787;42.022;23.078;2022-11-20T05:20:30;96136.34;;;17.42;81.05
20015;BME280;61787;42.022;23.078;2022-11-20T05:21:31;96130.13;;;17.48;80.32
20015;BME280;61787;42.022;23.078;2022-11-20T05:22:33;96134.03;;;17.40;80.17
20015;BME280;61787;42.022;23.078;2022-11-20T05:23:35;96138.31;;;17.38;80.38
20015;BME280;61787;42.022;23.078;2022-11-20T05:24:37;96137.53;;;17.37;80.62
20015;BME280;61787;42.022;23.078;2022-11-20T05:25:38;96128.59;;;17.40;80.16
20015;BME280;61787;42.022;23.078;2022-11-20T05:26:40;96133.22;;;17.51;80.28
20015;BME280;61787;42.022;23.078;2022-11-20T05:27:42;96134.78;;;17.48;79.68
20015;BME280;61787;42.022;23.078;2022-11-20T05:28:44;96139.44;;;17.47;79.76
20015;BME280;61787;42.022;23.078;2022-11-20T05:29:46;96137.09;;;17.46;79.68
20015;BME280;61787;42.022;23.078;2022-11-20T05:30:48;96133.22;;;17.51;79.45
20015;BME280;61787;42.022;23.078;2022-11-20T05:31:49;96139.44;;;17.47;79.46
20015;BME280;61787;42.022;23.078;2022-11-20T05:32:51;96141.00;;;17.48;79.56
20015;BME280;61787;42.022;23.078;2022-11-20T05:33:53;96142.50;;;17.53;79.97
20015;BME280;61787;42.022;23.078;2022-11-20T05:34:55;96144.06;;;17.51;79.36
20015;BME280;61787;42.022;23.078;2022-11-20T05:35:59;96145.59;;;17.52;79.11